Terminal Aerodrome Forecast
Issued by NWS Austin/San Antonio, TX

Home | Current Version | Previous Version | Text Only | Print | Product List | Glossary On
Versions: 1 2 3 4 5 6 7 8 9 10 11 12 13 14 15 16 17 18
000
FTUS44 KEWX 252328
TAFSAT
TAF
KSAT 252328Z 2600/2706 34013G23KT P6SM -RA VCTS BKN060CB OVC120
     FM260100 36011KT P6SM OVC040
     FM261200 01007KT P6SM BKN060 BKN250
     FM261700 VRB05KT P6SM FEW070 SCT250
     FM270100 13006KT P6SM SCT200=

USA.gov is the U.S. government's official web portal to all federal, state and local government web resources and services.